sensor_id;sensor_type;location;lat;lon;timestamp;pressure;altitude;pressure_sealevel;temperature;humidity
81545;BME280;70990;50.618;7.346;2024-03-22T00:00:28;98828.09;;;9.30;99.26
81545;BME280;70990;50.618;7.346;2024-03-22T00:02:54;98819.38;;;9.21;100.00
81545;BME280;70990;50.618;7.346;2024-03-22T00:05:19;98825.72;;;9.36;98.97
81545;BME280;70990;50.618;7.346;2024-03-22T00:07:45;98835.56;;;9.33;99.13
81545;BME280;70990;50.618;7.346;2024-03-22T00:10:10;98830.47;;;9.35;99.34
81545;BME280;70990;50.618;7.346;2024-03-22T00:12:36;98834.34;;;9.20;99.49
81545;BME280;70990;50.618;7.346;2024-03-22T00:15:01;98825.25;;;9.12;99.10
81545;BME280;70990;50.618;7.346;2024-03-22T00:17:27;98833.94;;;9.14;99.15
81545;BME280;70990;50.618;7.346;2024-03-22T00:19:52;98833.97;;;9.21;99.17
81545;BME280;70990;50.618;7.346;2024-03-22T00:22:18;98822.13;;;9.21;98.41
81545;BME280;70990;50.618;7.346;2024-03-22T00:24:44;98826.88;;;9.24;98.01
81545;BME280;70990;50.618;7.346;2024-03-22T00:27:10;98820.94;;;9.15;98.75
81545;BME280;70990;50.618;7.346;2024-03-22T00:29:36;98817.06;;;9.30;97.19
81545;BME280;70990;50.618;7.346;2024-03-22T00:32:01;98817.84;;;9.34;97.79
81545;BME280;70990;50.618;7.346;2024-03-22T00:34:27;98814.25;;;9.16;98.95
81545;BME280;70990;50.618;7.346;2024-03-22T00:36:52;98811.03;;;9.07;98.13
81545;BME280;70990;50.618;7.346;2024-03-22T00:39:18;98811.50;;;9.16;98.98
81545;BME280;70990;50.618;7.346;2024-03-22T00:41:43;98809.88;;;9.04;98.95
81545;BME280;70990;50.618;7.346;2024-03-22T00:44:09;98807.91;;;9.05;98.72
81545;BME280;70990;50.618;7.346;2024-03-22T00:46:34;98808.00;;;9.29;98.33
81545;BME280;70990;50.618;7.346;2024-03-22T00:49:01;98802.00;;;9.13;98.08
81545;BME280;70990;50.618;7.346;2024-03-22T00:51:26;98789.44;;;9.19;98.61
81545;BME280;70990;50.618;7.346;2024-03-22T00:53:52;98791.41;;;9.22;98.55
81545;BME280;70990;50.618;7.346;2024-03-22T00:56:18;98790.63;;;9.25;97.65
81545;BME280;70990;50.618;7.346;2024-03-22T00:58:44;98786.72;;;9.30;97.26
81545;BME280;70990;50.618;7.346;2024-03-22T01:01:09;98786.72;;;9.44;97.07
81545;BME280;70990;50.618;7.346;2024-03-22T01:03:35;98776.47;;;9.34;97.47
81545;BME280;70990;50.618;7.346;2024-03-22T01:06:01;98772.53;;;9.28;98.40
81545;BME280;70990;50.618;7.346;2024-03-22T01:08:27;98779.63;;;9.29;98.79
81545;BME280;70990;50.618;7.346;2024-03-22T01:10:53;98780.81;;;9.28;100.00
81545;BME280;70990;50.618;7.346;2024-03-22T01:13:19;98769.75;;;9.31;99.21
81545;BME280;70990;50.618;7.346;2024-03-22T01:15:44;98752.78;;;9.19;99.44
81545;BME280;70990;50.618;7.346;2024-03-22T01:18:10;98767.78;;;9.32;98.41
81545;BME280;70990;50.618;7.346;2024-03-22T01:20:35;98754.00;;;9.25;98.92
81545;BME280;70990;50.618;7.346;2024-03-22T01:23:01;98755.97;;;9.28;99.11
81545;BME280;70990;50.618;7.346;2024-03-22T01:25:27;98761.88;;;9.16;99.18
81545;BME280;70990;50.618;7.346;2024-03-22T01:27:56;98752.81;;;9.22;97.17
81545;BME280;70990;50.618;7.346;2024-03-22T01:30:25;98753.59;;;9.16;96.62
81545;BME280;70990;50.618;7.346;2024-03-22T01:32:55;98754.81;;;9.40;95.05
81545;BME280;70990;50.618;7.346;2024-03-22T01:35:27;98744.56;;;9.33;94.90
81545;BME280;70990;50.618;7.346;2024-03-22T01:37:53;98752.44;;;9.38;93.89
81545;BME280;70990;50.618;7.346;2024-03-22T01:40:18;98744.59;;;9.58;93.53
81545;BME280;70990;50.618;7.346;2024-03-22T01:42:44;98734.31;;;9.44;93.13
81545;BME280;70990;50.618;7.346;2024-03-22T01:45:11;98736.31;;;9.40;93.11
81545;BME280;70990;50.618;7.346;2024-03-22T01:47:39;98739.09;;;9.61;93.17
81545;BME280;70990;50.618;7.346;2024-03-22T01:50:06;98736.72;;;9.53;92.68
81545;BME280;70990;50.618;7.346;2024-03-22T01:52:32;98731.97;;;9.64;92.21
81545;BME280;70990;50.618;7.346;2024-03-22T01:54:58;98726.06;;;9.44;93.17
81545;BME280;70990;50.618;7.346;2024-03-22T01:57:23;98730.00;;;9.40;94.76
81545;BME280;70990;50.618;7.346;2024-03-22T01:59:51;98726.84;;;9.34;93.70
81545;BME280;70990;50.618;7.346;2024-03-22T02:02:19;98727.59;;;9.10;96.16
81545;BME280;70990;50.618;7.346;2024-03-22T02:04:44;98725.94;;;8.87;98.17
81545;BME280;70990;50.618;7.346;2024-03-22T02:07:10;98716.03;;;8.65;99.69
81545;BME280;70990;50.618;7.346;2024-03-22T02:09:36;98714.81;;;8.56;100.00
81545;BME280;70990;50.618;7.346;2024-03-22T02:12:01;98713.19;;;8.44;100.00
81545;BME280;70990;50.618;7.346;2024-03-22T02:14:27;98714.00;;;8.48;100.00
81545;BME280;70990;50.618;7.346;2024-03-22T02:16:52;98703.75;;;8.45;100.00
81545;BME280;70990;50.618;7.346;2024-03-22T02:19:18;98701.44;;;8.54;100.00
81545;BME280;70990;50.618;7.346;2024-03-22T02:21:43;98695.56;;;8.66;100.00
81545;BME280;70990;50.618;7.346;2024-03-22T02:24:09;98686.53;;;8.76;98.93
81545;BME280;70990;50.618;7.346;2024-03-22T02:26:34;98690.56;;;9.11;97.25
81545;BME280;70990;50.618;7.346;2024-03-22T02:29:00;98692.53;;;9.14;96.03
81545;BME280;70990;50.618;7.346;2024-03-22T02:31:25;98688.59;;;9.15;95.83
81545;BME280;70990;50.618;7.346;2024-03-22T02:33:51;98679.56;;;9.21;95.36
81545;BME280;70990;50.618;7.346;2024-03-22T02:36:17;98676.00;;;9.28;94.94
81545;BME280;70990;50.618;7.346;2024-03-22T02:38:43;98664.59;;;9.33;94.46
81545;BME280;70990;50.618;7.346;2024-03-22T02:41:08;98666.56;;;9.36;94.58
81545;BME280;70990;50.618;7.346;2024-03-22T02:43:34;98664.59;;;9.33;93.94
81545;BME280;70990;50.618;7.346;2024-03-22T02:46:00;98660.25;;;9.36;93.90
81545;BME280;70990;50.618;7.346;2024-03-22T02:48:25;98658.31;;;9.36;94.07
81545;BME280;70990;50.618;7.346;2024-03-22T02:50:55;98658.69;;;9.49;93.48
81545;BME280;70990;50.618;7.346;2024-03-22T02:53:20;98656.72;;;9.46;93.78
81545;BME280;70990;50.618;7.346;2024-03-22T02:55:46;98653.94;;;9.60;93.58
81545;BME280;70990;50.618;7.346;2024-03-22T02:58:11;98651.97;;;9.60;93.60
81545;BME280;70990;50.618;7.346;2024-03-22T03:00:38;98648.81;;;9.65;93.76
81545;BME280;70990;50.618;7.346;2024-03-22T03:03:04;98651.19;;;9.60;93.51
81545;BME280;70990;50.618;7.346;2024-03-22T03:05:30;98647.63;;;9.38;94.03
81545;BME280;70990;50.618;7.346;2024-03-22T03:07:55;98641.34;;;9.52;94.18
81545;BME280;70990;50.618;7.346;2024-03-22T03:10:21;98645.66;;;9.60;93.75
81545;BME280;70990;50.618;7.346;2024-03-22T03:12:46;98635.03;;;9.65;93.52
81545;BME280;70990;50.618;7.346;2024-03-22T03:15:12;98640.53;;;9.58;93.40
81545;BME280;70990;50.618;7.346;2024-03-22T03:17:39;98631.88;;;9.56;93.66
81545;BME280;70990;50.618;7.346;2024-03-22T03:20:05;98627.53;;;9.66;93.50
81545;BME280;70990;50.618;7.346;2024-03-22T03:22:30;98625.13;;;9.75;92.71
81545;BME280;70990;50.618;7.346;2024-03-22T03:24:56;98625.91;;;9.86;92.78
81545;BME280;70990;50.618;7.346;2024-03-22T03:27:21;98618.81;;;9.89;92.22
81545;BME280;70990;50.618;7.346;2024-03-22T03:29:47;98618.00;;;9.88;91.96
81545;BME280;70990;50.618;7.346;2024-03-22T03:32:12;98613.28;;;9.89;91.39
81545;BME280;70990;50.618;7.346;2024-03-22T03:34:38;98617.63;;;9.86;91.93
81545;BME280;70990;50.618;7.346;2024-03-22T03:37:04;98617.22;;;9.81;92.20
81545;BME280;70990;50.618;7.346;2024-03-22T03:39:29;98613.66;;;9.94;91.88
81545;BME280;70990;50.618;7.346;2024-03-22T03:41:55;98618.00;;;9.92;91.63
81545;BME280;70990;50.618;7.346;2024-03-22T03:44:20;98613.25;;;10.03;91.75
81545;BME280;70990;50.618;7.346;2024-03-22T03:46:46;98614.38;;;10.16;91.96
81545;BME280;70990;50.618;7.346;2024-03-22T03:49:12;98604.53;;;10.19;91.73
81545;BME280;70990;50.618;7.346;2024-03-22T03:51:37;98611.66;;;10.09;91.76
81545;BME280;70990;50.618;7.346;2024-03-22T03:54:03;98606.09;;;10.12;91.73
81545;BME280;70990;50.618;7.346;2024-03-22T03:56:28;98604.88;;;10.35;91.24
81545;BME280;70990;50.618;7.346;2024-03-22T03:58:54;98604.06;;;10.34;91.21
81545;BME280;70990;50.618;7.346;2024-03-22T04:01:20;98598.97;;;10.29;91.44
81545;BME280;70990;50.618;7.346;2024-03-22T04:03:45;98598.53;;;10.41;90.84
81545;BME280;70990;50.618;7.346;2024-03-22T04:06:11;98603.72;;;10.29;90.31
81545;BME280;70990;50.618;7.346;2024-03-22T04:08:37;98602.03;;;10.45;90.52
81545;BME280;70990;50.618;7.346;2024-03-22T04:11:03;98603.69;;;10.32;90.44
81545;BME280;70990;50.618;7.346;2024-03-22T04:13:28;98599.78;;;10.19;90.70
81545;BME280;70990;50.618;7.346;2024-03-22T04:15:58;98592.69;;;10.22;90.23
81545;BME280;70990;50.618;7.346;2024-03-22T04:18:24;98597.81;;;10.20;90.67
81545;BME280;70990;50.618;7.346;2024-03-22T04:20:54;98597.81;;;10.16;90.83
81545;BME280;70990;50.618;7.346;2024-03-22T04:23:20;98592.28;;;10.23;90.13
81545;BME280;70990;50.618;7.346;2024-03-22T04:25:59;98594.25;;;10.30;90.27
81545;BME280;70990;50.618;7.346;2024-03-22T04:28:26;98605.72;;;10.21;91.25
81545;BME280;70990;50.618;7.346;2024-03-22T04:31:01;98600.59;;;10.23;91.26
81545;BME280;70990;50.618;7.346;2024-03-22T04:33:28;98591.09;;;10.13;91.56
81545;BME280;70990;50.618;7.346;2024-03-22T04:35:54;98602.94;;;10.14;91.26
81545;BME280;70990;50.618;7.346;2024-03-22T04:38:20;98592.69;;;10.18;91.53
81545;BME280;70990;50.618;7.346;2024-03-22T04:40:46;98599.03;;;10.08;91.38
81545;BME280;70990;50.618;7.346;2024-03-22T04:43:16;98596.63;;;10.21;91.47
81545;BME280;70990;50.618;7.346;2024-03-22T04:45:43;98590.72;;;10.15;92.10
81545;BME280;70990;50.618;7.346;2024-03-22T04:48:09;98584.00;;;10.16;92.39
81545;BME280;70990;50.618;7.346;2024-03-22T04:50:35;98588.00;;;10.04;92.57
81545;BME280;70990;50.618;7.346;2024-03-22T04:53:01;98585.63;;;10.17;92.99
81545;BME280;70990;50.618;7.346;2024-03-22T04:55:27;98572.19;;;10.16;93.38
81545;BME280;70990;50.618;7.346;2024-03-22T04:57:52;98576.53;;;10.06;93.63
81545;BME280;70990;50.618;7.346;2024-03-22T05:00:18;98571.81;;;10.10;94.05
81545;BME280;70990;50.618;7.346;2024-03-22T05:02:44;98569.47;;;10.05;94.00
81545;BME280;70990;50.618;7.346;2024-03-22T05:05:09;98565.50;;;10.06;93.96
81545;BME280;70990;50.618;7.346;2024-03-22T05:07:35;98566.31;;;10.03;94.51
81545;BME280;70990;50.618;7.346;2024-03-22T05:10:02;98563.94;;;10.05;93.46
81545;BME280;70990;50.618;7.346;2024-03-22T05:12:27;98563.53;;;10.10;93.28
81545;BME280;70990;50.618;7.346;2024-03-22T05:14:53;98560.41;;;9.97;93.97
81545;BME280;70990;50.618;7.346;2024-03-22T05:17:18;98554.88;;;10.01;93.38
81545;BME280;70990;50.618;7.346;2024-03-22T05:19:44;98552.03;;;10.29;92.60
81545;BME280;70990;50.618;7.346;2024-03-22T05:22:10;98549.38;;;9.97;94.33
81545;BME280;70990;50.618;7.346;2024-03-22T05:24:35;98547.03;;;9.92;94.08
81545;BME280;70990;50.618;7.346;2024-03-22T05:27:01;98543.06;;;9.97;93.95
81545;BME280;70990;50.618;7.346;2024-03-22T05:29:27;98546.63;;;9.94;93.39
81545;BME280;70990;50.618;7.346;2024-03-22T05:31:52;98529.69;;;9.92;93.73
81545;BME280;70990;50.618;7.346;2024-03-22T05:34:18;98531.22;;;10.00;93.46
81545;BME280;70990;50.618;7.346;2024-03-22T05:36:45;98533.66;;;9.84;94.96
81545;BME280;70990;50.618;7.346;2024-03-22T05:39:11;98523.03;;;9.79;94.69
81545;BME280;70990;50.618;7.346;2024-03-22T05:41:36;98520.63;;;9.88;94.53
81545;BME280;70990;50.618;7.346;2024-03-22T05:44:03;98517.84;;;9.88;95.20
81545;BME280;70990;50.618;7.346;2024-03-22T05:46:29;98521.78;;;9.94;94.60
81545;BME280;70990;50.618;7.346;2024-03-22T05:48:56;98527.19;;;10.22;95.59
81545;BME280;70990;50.618;7.346;2024-03-22T05:51:22;98525.22;;;10.19;95.79
81545;BME280;70990;50.618;7.346;2024-03-22T05:53:48;98512.69;;;10.00;95.81
81545;BME280;70990;50.618;7.346;2024-03-22T05:56:13;98516.22;;;10.04;96.75
81545;BME280;70990;50.618;7.346;2024-03-22T05:58:39;98510.72;;;9.97;96.06
81545;BME280;70990;50.618;7.346;2024-03-22T06:01:05;98505.53;;;10.10;95.31
81545;BME280;70990;50.618;7.346;2024-03-22T06:03:31;98515.53;;;9.79;95.99
81545;BME280;70990;50.618;7.346;2024-03-22T06:05:58;98517.00;;;10.05;96.23
81545;BME280;70990;50.618;7.346;2024-03-22T06:08:25;98508.31;;;10.10;94.86
81545;BME280;70990;50.618;7.346;2024-03-22T06:10:52;98512.59;;;10.22;95.52
81545;BME280;70990;50.618;7.346;2024-03-22T06:13:18;98503.53;;;10.21;93.52
81545;BME280;70990;50.618;7.346;2024-03-22T06:15:44;98499.50;;;10.36;92.22
81545;BME280;70990;50.618;7.346;2024-03-22T06:18:09;98504.81;;;10.65;91.53
81545;BME280;70990;50.618;7.346;2024-03-22T06:20:35;98499.28;;;10.65;90.77
81545;BME280;70990;50.618;7.346;2024-03-22T06:23:01;98503.09;;;10.85;90.20
81545;BME280;70990;50.618;7.346;2024-03-22T06:25:26;98497.22;;;10.79;89.58
81545;BME280;70990;50.618;7.346;2024-03-22T06:27:52;98498.31;;;10.89;89.03
81545;BME280;70990;50.618;7.346;2024-03-22T06:30:18;98491.53;;;10.97;89.17
81545;BME280;70990;50.618;7.346;2024-03-22T06:32:43;98480.81;;;11.03;88.24
81545;BME280;70990;50.618;7.346;2024-03-22T06:35:09;98478.44;;;11.05;87.76
81545;BME280;70990;50.618;7.346;2024-03-22T06:37:34;98490.03;;;11.30;87.02
81545;BME280;70990;50.618;7.346;2024-03-22T06:40:00;98490.50;;;11.21;86.53
81545;BME280;70990;50.618;7.346;2024-03-22T06:42:25;98488.84;;;11.27;87.33
81545;BME280;70990;50.618;7.346;2024-03-22T06:44:52;98491.25;;;11.25;86.18
81545;BME280;70990;50.618;7.346;2024-03-22T06:47:18;98476.59;;;11.28;85.82
81545;BME280;70990;50.618;7.346;2024-03-22T06:49:43;98474.13;;;11.38;86.20
81545;BME280;70990;50.618;7.346;2024-03-22T06:52:09;98474.16;;;11.34;84.87
81545;BME280;70990;50.618;7.346;2024-03-22T06:54:34;98475.66;;;11.42;85.23
81545;BME280;70990;50.618;7.346;2024-03-22T06:57:00;98473.16;;;11.55;85.04
81545;BME280;70990;50.618;7.346;2024-03-22T06:59:25;98474.09;;;11.41;85.06
81545;BME280;70990;50.618;7.346;2024-03-22T07:01:51;98472.38;;;11.51;84.20
81545;BME280;70990;50.618;7.346;2024-03-22T07:04:17;98466.91;;;11.47;83.56
81545;BME280;70990;50.618;7.346;2024-03-22T07:06:42;98462.09;;;11.55;83.00
81545;BME280;70990;50.618;7.346;2024-03-22T07:09:08;98474.63;;;11.63;83.03
81545;BME280;70990;50.618;7.346;2024-03-22T07:11:33;98465.00;;;11.75;82.78
81545;BME280;70990;50.618;7.346;2024-03-22T07:13:59;98460.78;;;11.63;82.23
81545;BME280;70990;50.618;7.346;2024-03-22T07:16:24;98467.63;;;11.55;83.07
81545;BME280;70990;50.618;7.346;2024-03-22T07:18:50;98461.63;;;11.60;82.76
81545;BME280;70990;50.618;7.346;2024-03-22T07:21:15;98462.59;;;11.80;82.57
81545;BME280;70990;50.618;7.346;2024-03-22T07:23:42;98472.88;;;11.80;82.32
81545;BME280;70990;50.618;7.346;2024-03-22T07:26:07;98466.63;;;11.72;82.91
81545;BME280;70990;50.618;7.346;2024-03-22T07:28:33;98464.19;;;11.78;82.05
81545;BME280;70990;50.618;7.346;2024-03-22T07:30:58;98466.97;;;11.78;83.16
81545;BME280;70990;50.618;7.346;2024-03-22T07:33:24;98464.91;;;11.85;81.98
81545;BME280;70990;50.618;7.346;2024-03-22T07:35:51;98470.28;;;11.96;81.70
81545;BME280;70990;50.618;7.346;2024-03-22T07:38:16;98459.75;;;12.14;82.51
81545;BME280;70990;50.618;7.346;2024-03-22T07:40:42;98460.53;;;12.15;82.66
81545;BME280;70990;50.618;7.346;2024-03-22T07:43:07;98457.72;;;11.88;81.44
81545;BME280;70990;50.618;7.346;2024-03-22T07:45:36;98453.06;;;12.11;82.14
81545;BME280;70990;50.618;7.346;2024-03-22T07:48:03;98444.53;;;12.26;81.91
81545;BME280;70990;50.618;7.346;2024-03-22T07:50:28;98450.81;;;12.30;80.69
81545;BME280;70990;50.618;7.346;2024-03-22T07:52:55;98443.63;;;12.32;81.22
81545;BME280;70990;50.618;7.346;2024-03-22T07:55:20;98439.75;;;12.30;79.96
81545;BME280;70990;50.618;7.346;2024-03-22T07:57:46;98446.28;;;12.43;81.30
81545;BME280;70990;50.618;7.346;2024-03-22T08:00:12;98445.00;;;12.47;81.03
81545;BME280;70990;50.618;7.346;2024-03-22T08:02:38;98449.97;;;12.33;80.62
81545;BME280;70990;50.618;7.346;2024-03-22T08:05:04;98450.59;;;12.44;80.40
81545;BME280;70990;50.618;7.346;2024-03-22T08:07:30;98445.00;;;12.47;79.70
81545;BME280;70990;50.618;7.346;2024-03-22T08:09:56;98436.03;;;12.63;79.79
81545;BME280;70990;50.618;7.346;2024-03-22T08:12:21;98433.38;;;12.79;80.36
81545;BME280;70990;50.618;7.346;2024-03-22T08:14:47;98440.25;;;12.94;78.45
81545;BME280;70990;50.618;7.346;2024-03-22T08:17:12;98426.50;;;13.30;76.72
81545;BME280;70990;50.618;7.346;2024-03-22T08:19:39;98448.44;;;13.02;76.63
81545;BME280;70990;50.618;7.346;2024-03-22T08:22:05;98446.69;;;13.54;79.23
81545;BME280;70990;50.618;7.346;2024-03-22T08:24:30;98430.31;;;13.60;75.63
81545;BME280;70990;50.618;7.346;2024-03-22T08:26:56;98434.53;;;13.48;76.66
81545;BME280;70990;50.618;7.346;2024-03-22T08:29:21;98431.16;;;13.37;76.12
81545;BME280;70990;50.618;7.346;2024-03-22T08:31:47;98430.47;;;13.10;76.98
81545;BME280;70990;50.618;7.346;2024-03-22T08:34:12;98426.13;;;13.09;77.12
81545;BME280;70990;50.618;7.346;2024-03-22T08:36:39;98427.16;;;13.18;76.33
81545;BME280;70990;50.618;7.346;2024-03-22T08:39:04;98414.72;;;13.03;77.23
81545;BME280;70990;50.618;7.346;2024-03-22T08:41:30;98421.47;;;13.02;76.20
81545;BME280;70990;50.618;7.346;2024-03-22T08:43:55;98422.19;;;12.86;77.01
81545;BME280;70990;50.618;7.346;2024-03-22T08:46:21;98408.31;;;12.86;77.37
81545;BME280;70990;50.618;7.346;2024-03-22T08:48:47;98411.44;;;13.51;76.79
81545;BME280;70990;50.618;7.346;2024-03-22T08:51:12;98405.03;;;13.54;76.97
81545;BME280;70990;50.618;7.346;2024-03-22T08:53:38;98402.00;;;13.85;75.41
81545;BME280;70990;50.618;7.346;2024-03-22T08:56:04;98395.16;;;14.05;74.74
81545;BME280;70990;50.618;7.346;2024-03-22T08:58:29;98393.63;;;14.21;73.52
81545;BME280;70990;50.618;7.346;2024-03-22T09:00:55;98398.25;;;14.11;72.64
81545;BME280;70990;50.618;7.346;2024-03-22T09:03:20;98381.22;;;14.25;72.15
81545;BME280;70990;50.618;7.346;2024-03-22T09:05:47;98386.97;;;14.34;71.43
81545;BME280;70990;50.618;7.346;2024-03-22T09:08:15;98387.31;;;14.20;73.01
81545;BME280;70990;50.618;7.346;2024-03-22T09:10:45;98386.44;;;14.23;72.94
81545;BME280;70990;50.618;7.346;2024-03-22T09:13:11;98391.81;;;14.14;72.09
81545;BME280;70990;50.618;7.346;2024-03-22T09:15:37;98376.81;;;13.76;73.55
81545;BME280;70990;50.618;7.346;2024-03-22T09:18:03;98389.63;;;13.69;73.23
81545;BME280;70990;50.618;7.346;2024-03-22T09:20:31;98376.94;;;13.68;73.34
81545;BME280;70990;50.618;7.346;2024-03-22T09:22:57;98377.59;;;13.76;73.97
81545;BME280;70990;50.618;7.346;2024-03-22T09:25:23;98381.44;;;13.62;73.98
81545;BME280;70990;50.618;7.346;2024-03-22T09:27:49;98375.72;;;13.89;73.73
81545;BME280;70990;50.618;7.346;2024-03-22T09:30:16;98370.09;;;14.09;73.41
81545;BME280;70990;50.618;7.346;2024-03-22T09:32:42;98368.88;;;14.26;71.69
81545;BME280;70990;50.618;7.346;2024-03-22T09:35:08;98368.53;;;14.24;72.14
81545;BME280;70990;50.618;7.346;2024-03-22T09:37:33;98355.53;;;14.05;72.24
81545;BME280;70990;50.618;7.346;2024-03-22T09:39:59;98359.78;;;14.09;73.77
81545;BME280;70990;50.618;7.346;2024-03-22T09:42:25;98362.97;;;14.24;72.07
81545;BME280;70990;50.618;7.346;2024-03-22T09:44:51;98363.84;;;14.21;74.35
81545;BME280;70990;50.618;7.346;2024-03-22T09:47:18;98376.38;;;14.29;73.49
81545;BME280;70990;50.618;7.346;2024-03-22T09:49:44;98367.31;;;13.93;73.88
81545;BME280;70990;50.618;7.346;2024-03-22T09:52:14;98359.81;;;13.90;72.78
81545;BME280;70990;50.618;7.346;2024-03-22T09:54:41;98361.66;;;13.80;73.52
81545;BME280;70990;50.618;7.346;2024-03-22T09:57:14;98355.41;;;13.92;73.53
81545;BME280;70990;50.618;7.346;2024-03-22T09:59:40;98359.34;;;14.27;72.55
81545;BME280;70990;50.618;7.346;2024-03-22T10:02:11;98353.97;;;14.36;73.21
81545;BME280;70990;50.618;7.346;2024-03-22T10:04:37;98354.91;;;14.62;74.17
81545;BME280;70990;50.618;7.346;2024-03-22T10:07:03;98365.19;;;14.94;75.10
81545;BME280;70990;50.618;7.346;2024-03-22T10:09:29;98348.66;;;14.58;74.77
81545;BME280;70990;50.618;7.346;2024-03-22T10:11:56;98353.78;;;14.60;73.07
81545;BME280;70990;50.618;7.346;2024-03-22T10:14:22;98341.56;;;14.41;73.46
81545;BME280;70990;50.618;7.346;2024-03-22T10:16:48;98346.47;;;14.66;74.82
81545;BME280;70990;50.618;7.346;2024-03-22T10:19:15;98342.31;;;14.58;72.89
81545;BME280;70990;50.618;7.346;2024-03-22T10:21:41;98337.03;;;14.92;73.10
81545;BME280;70990;50.618;7.346;2024-03-22T10:24:07;98335.09;;;14.60;71.86
81545;BME280;70990;50.618;7.346;2024-03-22T10:26:33;98335.72;;;14.68;70.91
81545;BME280;70990;50.618;7.346;2024-03-22T10:28:59;98331.31;;;14.83;71.13
81545;BME280;70990;50.618;7.346;2024-03-22T10:31:24;98335.03;;;14.92;73.53
81545;BME280;70990;50.618;7.346;2024-03-22T10:37:37;98329.25;;;14.71;68.29
81545;BME280;70990;50.618;7.346;2024-03-22T10:40:06;98326.75;;;15.05;66.87
81545;BME280;70990;50.618;7.346;2024-03-22T10:42:40;98324.59;;;14.35;65.84
81545;BME280;70990;50.618;7.346;2024-03-22T10:45:08;98324.94;;;14.53;68.77
81545;BME280;70990;50.618;7.346;2024-03-22T10:47:37;98326.03;;;14.72;65.51
81545;BME280;70990;50.618;7.346;2024-03-22T10:50:12;98318.44;;;14.89;66.70
81545;BME280;70990;50.618;7.346;2024-03-22T10:55:34;98318.03;;;14.74;65.93
81545;BME280;70990;50.618;7.346;2024-03-22T10:58:01;98313.53;;;14.93;66.10
81545;BME280;70990;50.618;7.346;2024-03-22T11:00:33;98312.19;;;14.85;65.74
81545;BME280;70990;50.618;7.346;2024-03-22T11:03:03;98299.50;;;14.55;67.08
81545;BME280;70990;50.618;7.346;2024-03-22T11:05:29;98294.25;;;14.25;66.13
81545;BME280;70990;50.618;7.346;2024-03-22T11:08:04;98297.16;;;14.53;66.76
81545;BME280;70990;50.618;7.346;2024-03-22T11:10:34;98306.41;;;14.31;66.89
81545;BME280;70990;50.618;7.346;2024-03-22T11:13:01;98297.94;;;14.54;67.37
81545;BME280;70990;50.618;7.346;2024-03-22T11:15:31;98292.25;;;14.58;66.63
81545;BME280;70990;50.618;7.346;2024-03-22T11:17:57;98286.13;;;14.79;67.00
81545;BME280;70990;50.618;7.346;2024-03-22T11:20:23;98286.41;;;14.68;67.32
81545;BME280;70990;50.618;7.346;2024-03-22T11:22:51;98276.69;;;14.89;67.17
81545;BME280;70990;50.618;7.346;2024-03-22T11:25:17;98274.81;;;14.86;66.69
81545;BME280;70990;50.618;7.346;2024-03-22T11:27:42;98267.25;;;14.99;66.51
81545;BME280;70990;50.618;7.346;2024-03-22T11:30:08;98257.41;;;14.82;65.94
81545;BME280;70990;50.618;7.346;2024-03-22T11:32:34;98267.94;;;15.03;65.69
81545;BME280;70990;50.618;7.346;2024-03-22T11:34:59;98262.63;;;15.21;66.72
81545;BME280;70990;50.618;7.346;2024-03-22T11:37:26;98258.13;;;14.86;66.23
81545;BME280;70990;50.618;7.346;2024-03-22T11:39:52;98255.41;;;15.11;67.59
81545;BME280;70990;50.618;7.346;2024-03-22T11:42:18;98258.22;;;14.95;67.79
81545;BME280;70990;50.618;7.346;2024-03-22T11:44:44;98245.47;;;15.10;66.68
81545;BME280;70990;50.618;7.346;2024-03-22T11:47:11;98238.25;;;15.25;66.30
81545;BME280;70990;50.618;7.346;2024-03-22T11:49:38;98237.16;;;15.36;66.30
81545;BME280;70990;50.618;7.346;2024-03-22T11:52:08;98238.72;;;15.24;66.51
81545;BME280;70990;50.618;7.346;2024-03-22T11:54:35;98244.41;;;15.46;65.97
81545;BME280;70990;50.618;7.346;2024-03-22T11:57:02;98232.31;;;16.12;65.08
81545;BME280;70990;50.618;7.346;2024-03-22T11:59:29;98234.47;;;15.32;64.92
81545;BME280;70990;50.618;7.346;2024-03-22T12:01:55;98224.78;;;15.11;63.05
81545;BME280;70990;50.618;7.346;2024-03-22T12:04:21;98230.75;;;14.97;64.86
81545;BME280;70990;50.618;7.346;2024-03-22T12:06:49;98233.31;;;14.91;65.22
81545;BME280;70990;50.618;7.346;2024-03-22T12:09:15;98226.19;;;14.62;66.28
81545;BME280;70990;50.618;7.346;2024-03-22T12:11:41;98221.19;;;14.98;65.80
81545;BME280;70990;50.618;7.346;2024-03-22T12:14:07;98228.09;;;15.06;66.51
81545;BME280;70990;50.618;7.346;2024-03-22T12:16:32;98216.72;;;15.01;65.45
81545;BME280;70990;50.618;7.346;2024-03-22T12:18:58;98215.97;;;15.13;67.57
81545;BME280;70990;50.618;7.346;2024-03-22T12:21:24;98215.75;;;14.66;63.50
81545;BME280;70990;50.618;7.346;2024-03-22T12:23:50;98213.34;;;14.68;62.87
81545;BME280;70990;50.618;7.346;2024-03-22T12:26:16;98212.13;;;14.81;61.93
81545;BME280;70990;50.618;7.346;2024-03-22T12:28:43;98195.22;;;14.88;61.56
81545;BME280;70990;50.618;7.346;2024-03-22T12:31:09;98200.00;;;14.88;61.98
81545;BME280;70990;50.618;7.346;2024-03-22T12:33:35;98201.56;;;14.89;63.54
81545;BME280;70990;50.618;7.346;2024-03-22T12:36:00;98203.38;;;14.96;63.12
81545;BME280;70990;50.618;7.346;2024-03-22T12:38:26;98198.03;;;15.14;63.27
81545;BME280;70990;50.618;7.346;2024-03-22T12:40:52;98180.91;;;15.15;62.66
81545;BME280;70990;50.618;7.346;2024-03-22T12:43:17;98183.69;;;15.15;63.09
81545;BME280;70990;50.618;7.346;2024-03-22T12:45:45;98166.03;;;14.80;62.41
81545;BME280;70990;50.618;7.346;2024-03-22T12:48:12;98170.78;;;14.55;62.38
81545;BME280;70990;50.618;7.346;2024-03-22T12:50:38;98167.00;;;14.48;61.92
81545;BME280;70990;50.618;7.346;2024-03-22T12:53:05;98148.56;;;14.55;62.03
81545;BME280;70990;50.618;7.346;2024-03-22T12:55:30;98161.53;;;14.45;63.43
81545;BME280;70990;50.618;7.346;2024-03-22T12:57:57;98160.31;;;14.46;62.72
81545;BME280;70990;50.618;7.346;2024-03-22T13:00:23;98156.75;;;14.45;61.62
81545;BME280;70990;50.618;7.346;2024-03-22T13:02:48;98152.88;;;14.56;62.69